sensor_id;sensor_type;location;lat;lon;timestamp;P1;durP1;ratioP1;P2;durP2;ratioP2
68577;SDS011;61668;45.388;11.784;2023-02-03T00:01:01;211.20;;;93.30;;
68577;SDS011;61668;45.388;11.784;2023-02-03T00:03:27;193.80;;;90.20;;
68577;SDS011;61668;45.388;11.784;2023-02-03T00:05:53;204.20;;;94.10;;
68577;SDS011;61668;45.388;11.784;2023-02-03T00:08:20;192.90;;;83.80;;
68577;SDS011;61668;45.388;11.784;2023-02-03T00:10:47;359.00;;;136.90;;
68577;SDS011;61668;45.388;11.784;2023-02-03T00:13:13;277.20;;;111.20;;
68577;SDS011;61668;45.388;11.784;2023-02-03T00:15:39;195.40;;;89.60;;
68577;SDS011;61668;45.388;11.784;2023-02-03T00:18:05;202.10;;;95.40;;
68577;SDS011;61668;45.388;11.784;2023-02-03T00:20:31;200.10;;;91.00;;
68577;SDS011;61668;45.388;11.784;2023-02-03T00:23:07;215.30;;;90.20;;
68577;SDS011;61668;45.388;11.784;2023-02-03T00:25:35;202.20;;;89.90;;
68577;SDS011;61668;45.388;11.784;2023-02-03T00:28:01;212.90;;;89.70;;
68577;SDS011;61668;45.388;11.784;2023-02-03T00:30:27;208.90;;;89.60;;
68577;SDS011;61668;45.388;11.784;2023-02-03T00:32:53;211.90;;;89.80;;
68577;SDS011;61668;45.388;11.784;2023-02-03T00:35:20;223.10;;;93.70;;
68577;SDS011;61668;45.388;11.784;2023-02-03T00:37:54;216.40;;;91.90;;
68577;SDS011;61668;45.388;11.784;2023-02-03T00:40:22;203.20;;;89.00;;
68577;SDS011;61668;45.388;11.784;2023-02-03T00:42:48;186.10;;;79.40;;
68577;SDS011;61668;45.388;11.784;2023-02-03T00:45:15;190.60;;;87.10;;
68577;SDS011;61668;45.388;11.784;2023-02-03T00:47:41;188.20;;;81.80;;
68577;SDS011;61668;45.388;11.784;2023-02-03T00:50:07;192.00;;;84.10;;
68577;SDS011;61668;45.388;11.784;2023-02-03T00:52:34;199.60;;;89.70;;
68577;SDS011;61668;45.388;11.784;2023-02-03T00:55:00;194.40;;;79.80;;
68577;SDS011;61668;45.388;11.784;2023-02-03T00:57:25;186.70;;;84.90;;
68577;SDS011;61668;45.388;11.784;2023-02-03T00:59:51;183.90;;;81.90;;
68577;SDS011;61668;45.388;11.784;2023-02-03T01:02:17;176.80;;;77.80;;
68577;SDS011;61668;45.388;11.784;2023-02-03T01:04:43;191.20;;;85.90;;
68577;SDS011;61668;45.388;11.784;2023-02-03T01:07:08;182.60;;;80.00;;
68577;SDS011;61668;45.388;11.784;2023-02-03T01:09:35;184.40;;;79.00;;
68577;SDS011;61668;45.388;11.784;2023-02-03T01:12:02;198.60;;;81.40;;
68577;SDS011;61668;45.388;11.784;2023-02-03T01:14:29;196.70;;;83.60;;
68577;SDS011;61668;45.388;11.784;2023-02-03T01:16:55;220.50;;;92.70;;
68577;SDS011;61668;45.388;11.784;2023-02-03T01:19:21;204.20;;;86.40;;
68577;SDS011;61668;45.388;11.784;2023-02-03T01:21:47;207.90;;;87.40;;
68577;SDS011;61668;45.388;11.784;2023-02-03T01:24:12;198.00;;;83.50;;
68577;SDS011;61668;45.388;11.784;2023-02-03T01:26:41;184.00;;;76.20;;
68577;SDS011;61668;45.388;11.784;2023-02-03T01:29:07;187.40;;;82.80;;
68577;SDS011;61668;45.388;11.784;2023-02-03T01:31:38;200.30;;;84.90;;
68577;SDS011;61668;45.388;11.784;2023-02-03T01:34:09;200.50;;;81.90;;
68577;SDS011;61668;45.388;11.784;2023-02-03T01:36:37;192.20;;;84.40;;
68577;SDS011;61668;45.388;11.784;2023-02-03T01:39:04;197.70;;;80.50;;
68577;SDS011;61668;45.388;11.784;2023-02-03T01:41:32;202.40;;;87.10;;
68577;SDS011;61668;45.388;11.784;2023-02-03T01:44:00;188.40;;;79.80;;
68577;SDS011;61668;45.388;11.784;2023-02-03T01:46:41;205.90;;;90.20;;
68577;SDS011;61668;45.388;11.784;2023-02-03T01:49:27;183.20;;;79.40;;
68577;SDS011;61668;45.388;11.784;2023-02-03T01:51:55;177.70;;;73.50;;
68577;SDS011;61668;45.388;11.784;2023-02-03T01:54:24;191.30;;;81.70;;
68577;SDS011;61668;45.388;11.784;2023-02-03T01:56:59;181.00;;;79.40;;
68577;SDS011;61668;45.388;11.784;2023-02-03T01:59:29;170.30;;;73.20;;
68577;SDS011;61668;45.388;11.784;2023-02-03T02:01:57;195.10;;;82.50;;
68577;SDS011;61668;45.388;11.784;2023-02-03T02:04:27;188.60;;;83.10;;
68577;SDS011;61668;45.388;11.784;2023-02-03T02:06:57;177.40;;;76.20;;
68577;SDS011;61668;45.388;11.784;2023-02-03T02:09:25;174.50;;;76.40;;
68577;SDS011;61668;45.388;11.784;2023-02-03T02:11:51;181.80;;;76.00;;
68577;SDS011;61668;45.388;11.784;2023-02-03T02:14:17;159.50;;;69.10;;
68577;SDS011;61668;45.388;11.784;2023-02-03T02:31:15;182.50;;;80.40;;
68577;SDS011;61668;45.388;11.784;2023-02-03T02:35:06;185.70;;;80.40;;
68577;SDS011;61668;45.388;11.784;2023-02-03T02:43:20;182.00;;;77.10;;
68577;SDS011;61668;45.388;11.784;2023-02-03T02:45:55;188.70;;;83.20;;
68577;SDS011;61668;45.388;11.784;2023-02-03T02:48:39;189.20;;;79.20;;
68577;SDS011;61668;45.388;11.784;2023-02-03T02:51:20;187.20;;;77.70;;
68577;SDS011;61668;45.388;11.784;2023-02-03T02:53:56;183.80;;;76.00;;
68577;SDS011;61668;45.388;11.784;2023-02-03T02:56:26;170.80;;;75.80;;
68577;SDS011;61668;45.388;11.784;2023-02-03T02:58:55;189.50;;;78.30;;
68577;SDS011;61668;45.388;11.784;2023-02-03T03:01:22;189.30;;;83.10;;
68577;SDS011;61668;45.388;11.784;2023-02-03T03:03:48;185.90;;;82.00;;
68577;SDS011;61668;45.388;11.784;2023-02-03T03:06:18;184.70;;;77.90;;
68577;SDS011;61668;45.388;11.784;2023-02-03T03:09:03;186.50;;;78.10;;
68577;SDS011;61668;45.388;11.784;2023-02-03T03:11:40;193.70;;;80.60;;
68577;SDS011;61668;45.388;11.784;2023-02-03T03:14:25;188.40;;;83.20;;
68577;SDS011;61668;45.388;11.784;2023-02-03T03:16:58;191.80;;;79.90;;
68577;SDS011;61668;45.388;11.784;2023-02-03T03:19:31;178.90;;;72.70;;
68577;SDS011;61668;45.388;11.784;2023-02-03T03:22:03;170.10;;;73.50;;
68577;SDS011;61668;45.388;11.784;2023-02-03T03:24:33;183.80;;;79.20;;
68577;SDS011;61668;45.388;11.784;2023-02-03T03:27:08;172.30;;;77.50;;
68577;SDS011;61668;45.388;11.784;2023-02-03T03:29:43;179.30;;;78.20;;
68577;SDS011;61668;45.388;11.784;2023-02-03T03:32:12;186.50;;;75.80;;
68577;SDS011;61668;45.388;11.784;2023-02-03T03:34:39;171.00;;;74.80;;
68577;SDS011;61668;45.388;11.784;2023-02-03T03:37:13;183.60;;;79.80;;
68577;SDS011;61668;45.388;11.784;2023-02-03T03:39:56;178.10;;;76.50;;
68577;SDS011;61668;45.388;11.784;2023-02-03T03:48:10;176.50;;;73.20;;
68577;SDS011;61668;45.388;11.784;2023-02-03T03:51:01;166.20;;;73.60;;
68577;SDS011;61668;45.388;11.784;2023-02-03T03:53:34;169.90;;;73.10;;
68577;SDS011;61668;45.388;11.784;2023-02-03T03:56:06;171.20;;;76.30;;
68577;SDS011;61668;45.388;11.784;2023-02-03T03:58:40;169.30;;;71.10;;
68577;SDS011;61668;45.388;11.784;2023-02-03T04:01:10;168.60;;;71.80;;
68577;SDS011;61668;45.388;11.784;2023-02-03T04:03:49;172.00;;;75.40;;
68577;SDS011;61668;45.388;11.784;2023-02-03T04:06:19;171.20;;;74.90;;
68577;SDS011;61668;45.388;11.784;2023-02-03T04:08:44;167.40;;;73.70;;
68577;SDS011;61668;45.388;11.784;2023-02-03T04:11:10;173.30;;;73.50;;
68577;SDS011;61668;45.388;11.784;2023-02-03T04:13:56;187.30;;;75.30;;
68577;SDS011;61668;45.388;11.784;2023-02-03T04:16:21;173.30;;;73.90;;
68577;SDS011;61668;45.388;11.784;2023-02-03T04:18:47;179.80;;;75.90;;
68577;SDS011;61668;45.388;11.784;2023-02-03T04:21:13;193.50;;;82.60;;
68577;SDS011;61668;45.388;11.784;2023-02-03T04:23:38;193.20;;;83.30;;
68577;SDS011;61668;45.388;11.784;2023-02-03T04:26:04;187.50;;;80.30;;
68577;SDS011;61668;45.388;11.784;2023-02-03T04:28:30;187.20;;;83.40;;
68577;SDS011;61668;45.388;11.784;2023-02-03T04:30:59;175.30;;;75.40;;
68577;SDS011;61668;45.388;11.784;2023-02-03T04:33:25;180.40;;;74.30;;
68577;SDS011;61668;45.388;11.784;2023-02-03T04:35:51;168.90;;;70.10;;
68577;SDS011;61668;45.388;11.784;2023-02-03T04:38:17;176.60;;;72.50;;
68577;SDS011;61668;45.388;11.784;2023-02-03T04:40:43;167.30;;;71.60;;
68577;SDS011;61668;45.388;11.784;2023-02-03T04:43:10;176.20;;;75.80;;
68577;SDS011;61668;45.388;11.784;2023-02-03T04:45:37;156.50;;;70.70;;
68577;SDS011;61668;45.388;11.784;2023-02-03T04:48:03;165.50;;;73.60;;
68577;SDS011;61668;45.388;11.784;2023-02-03T04:50:30;172.10;;;71.20;;
68577;SDS011;61668;45.388;11.784;2023-02-03T04:52:56;162.90;;;71.10;;
68577;SDS011;61668;45.388;11.784;2023-02-03T04:55:26;166.10;;;70.90;;
68577;SDS011;61668;45.388;11.784;2023-02-03T04:57:59;172.90;;;71.90;;
68577;SDS011;61668;45.388;11.784;2023-02-03T05:00:28;171.40;;;73.60;;
68577;SDS011;61668;45.388;11.784;2023-02-03T05:02:54;163.80;;;70.50;;
68577;SDS011;61668;45.388;11.784;2023-02-03T05:05:20;169.40;;;72.20;;
68577;SDS011;61668;45.388;11.784;2023-02-03T05:07:46;172.50;;;73.00;;
68577;SDS011;61668;45.388;11.784;2023-02-03T05:10:12;174.50;;;75.20;;
68577;SDS011;61668;45.388;11.784;2023-02-03T05:12:37;175.00;;;71.70;;
68577;SDS011;61668;45.388;11.784;2023-02-03T05:15:03;160.70;;;65.30;;
68577;SDS011;61668;45.388;11.784;2023-02-03T05:17:29;162.70;;;67.40;;
68577;SDS011;61668;45.388;11.784;2023-02-03T05:19:55;169.40;;;70.70;;
68577;SDS011;61668;45.388;11.784;2023-02-03T05:22:21;167.60;;;68.00;;
68577;SDS011;61668;45.388;11.784;2023-02-03T05:24:47;172.60;;;72.10;;
68577;SDS011;61668;45.388;11.784;2023-02-03T05:27:12;160.70;;;65.50;;
68577;SDS011;61668;45.388;11.784;2023-02-03T05:29:38;161.80;;;65.40;;
68577;SDS011;61668;45.388;11.784;2023-02-03T05:32:04;158.80;;;66.80;;
68577;SDS011;61668;45.388;11.784;2023-02-03T05:34:30;161.30;;;64.80;;
68577;SDS011;61668;45.388;11.784;2023-02-03T05:36:55;152.50;;;65.30;;
68577;SDS011;61668;45.388;11.784;2023-02-03T05:39:21;161.80;;;66.80;;
68577;SDS011;61668;45.388;11.784;2023-02-03T05:41:46;159.30;;;65.30;;
68577;SDS011;61668;45.388;11.784;2023-02-03T05:44:24;169.90;;;70.40;;
68577;SDS011;61668;45.388;11.784;2023-02-03T05:46:53;166.30;;;69.20;;
68577;SDS011;61668;45.388;11.784;2023-02-03T05:49:20;174.90;;;69.50;;
68577;SDS011;61668;45.388;11.784;2023-02-03T05:51:51;159.40;;;64.80;;
68577;SDS011;61668;45.388;11.784;2023-02-03T05:54:19;172.90;;;68.90;;
68577;SDS011;61668;45.388;11.784;2023-02-03T05:56:46;153.20;;;65.00;;
68577;SDS011;61668;45.388;11.784;2023-02-03T05:59:11;168.80;;;67.80;;
68577;SDS011;61668;45.388;11.784;2023-02-03T06:01:37;169.00;;;70.80;;
68577;SDS011;61668;45.388;11.784;2023-02-03T06:04:03;161.80;;;66.80;;
68577;SDS011;61668;45.388;11.784;2023-02-03T06:06:30;161.40;;;66.10;;
68577;SDS011;61668;45.388;11.784;2023-02-03T06:09:04;166.60;;;70.10;;
68577;SDS011;61668;45.388;11.784;2023-02-03T06:11:32;153.10;;;66.00;;
68577;SDS011;61668;45.388;11.784;2023-02-03T06:13:59;166.90;;;71.30;;
68577;SDS011;61668;45.388;11.784;2023-02-03T06:16:26;165.40;;;71.90;;
68577;SDS011;61668;45.388;11.784;2023-02-03T06:18:54;163.50;;;68.20;;
68577;SDS011;61668;45.388;11.784;2023-02-03T06:21:25;172.10;;;73.10;;
68577;SDS011;61668;45.388;11.784;2023-02-03T06:23:51;153.60;;;68.20;;
68577;SDS011;61668;45.388;11.784;2023-02-03T06:26:17;161.80;;;66.80;;
68577;SDS011;61668;45.388;11.784;2023-02-03T06:28:42;161.80;;;66.80;;
68577;SDS011;61668;45.388;11.784;2023-02-03T06:31:08;155.60;;;64.00;;
68577;SDS011;61668;45.388;11.784;2023-02-03T06:33:34;160.90;;;67.90;;
68577;SDS011;61668;45.388;11.784;2023-02-03T06:35:59;149.50;;;64.50;;
68577;SDS011;61668;45.388;11.784;2023-02-03T06:38:25;151.00;;;63.80;;
68577;SDS011;61668;45.388;11.784;2023-02-03T06:40:51;160.70;;;63.80;;
68577;SDS011;61668;45.388;11.784;2023-02-03T06:43:17;156.80;;;62.70;;
68577;SDS011;61668;45.388;11.784;2023-02-03T06:45:46;162.90;;;65.50;;
68577;SDS011;61668;45.388;11.784;2023-02-03T06:48:13;161.90;;;67.10;;
68577;SDS011;61668;45.388;11.784;2023-02-03T06:50:39;159.90;;;61.70;;
68577;SDS011;61668;45.388;11.784;2023-02-03T06:53:05;166.40;;;63.20;;
68577;SDS011;61668;45.388;11.784;2023-02-03T06:55:31;172.60;;;64.10;;
68577;SDS011;61668;45.388;11.784;2023-02-03T06:57:56;164.10;;;64.10;;
68577;SDS011;61668;45.388;11.784;2023-02-03T07:00:22;163.70;;;62.30;;
68577;SDS011;61668;45.388;11.784;2023-02-03T07:02:53;155.50;;;62.90;;
68577;SDS011;61668;45.388;11.784;2023-02-03T07:05:20;146.60;;;60.20;;
68577;SDS011;61668;45.388;11.784;2023-02-03T07:07:47;160.30;;;62.40;;
68577;SDS011;61668;45.388;11.784;2023-02-03T07:10:13;151.80;;;62.10;;
68577;SDS011;61668;45.388;11.784;2023-02-03T07:12:38;161.60;;;62.70;;
68577;SDS011;61668;45.388;11.784;2023-02-03T07:15:04;170.50;;;62.20;;
68577;SDS011;61668;45.388;11.784;2023-02-03T07:17:30;159.20;;;64.00;;
68577;SDS011;61668;45.388;11.784;2023-02-03T07:19:56;158.40;;;63.50;;
68577;SDS011;61668;45.388;11.784;2023-02-03T07:22:22;164.00;;;61.90;;
68577;SDS011;61668;45.388;11.784;2023-02-03T07:24:47;161.40;;;62.30;;
68577;SDS011;61668;45.388;11.784;2023-02-03T07:27:13;152.20;;;57.40;;
68577;SDS011;61668;45.388;11.784;2023-02-03T07:29:39;160.60;;;62.20;;
68577;SDS011;61668;45.388;11.784;2023-02-03T07:32:05;140.40;;;55.20;;
68577;SDS011;61668;45.388;11.784;2023-02-03T07:34:30;140.70;;;55.50;;
68577;SDS011;61668;45.388;11.784;2023-02-03T07:36:56;152.00;;;60.70;;
68577;SDS011;61668;45.388;11.784;2023-02-03T07:39:22;167.40;;;61.90;;
68577;SDS011;61668;45.388;11.784;2023-02-03T07:41:47;155.80;;;62.30;;
68577;SDS011;61668;45.388;11.784;2023-02-03T07:44:13;164.90;;;63.80;;
68577;SDS011;61668;45.388;11.784;2023-02-03T07:46:39;158.40;;;61.10;;
68577;SDS011;61668;45.388;11.784;2023-02-03T07:49:10;163.80;;;63.00;;
68577;SDS011;61668;45.388;11.784;2023-02-03T07:51:36;159.60;;;61.30;;
68577;SDS011;61668;45.388;11.784;2023-02-03T07:54:02;148.40;;;60.40;;
68577;SDS011;61668;45.388;11.784;2023-02-03T07:56:28;158.50;;;61.20;;
68577;SDS011;61668;45.388;11.784;2023-02-03T07:58:57;152.10;;;61.90;;
68577;SDS011;61668;45.388;11.784;2023-02-03T08:01:24;158.70;;;61.40;;
68577;SDS011;61668;45.388;11.784;2023-02-03T08:03:50;166.20;;;62.90;;
68577;SDS011;61668;45.388;11.784;2023-02-03T08:06:17;150.30;;;58.80;;
68577;SDS011;61668;45.388;11.784;2023-02-03T08:08:42;144.40;;;56.40;;
68577;SDS011;61668;45.388;11.784;2023-02-03T08:11:09;143.90;;;58.40;;
68577;SDS011;61668;45.388;11.784;2023-02-03T08:13:35;150.50;;;59.40;;
68577;SDS011;61668;45.388;11.784;2023-02-03T08:16:01;145.20;;;59.20;;
68577;SDS011;61668;45.388;11.784;2023-02-03T08:18:27;150.90;;;58.10;;
68577;SDS011;61668;45.388;11.784;2023-02-03T08:20:53;151.30;;;59.30;;
68577;SDS011;61668;45.388;11.784;2023-02-03T08:23:18;138.90;;;59.20;;
68577;SDS011;61668;45.388;11.784;2023-02-03T08:25:44;122.00;;;53.10;;
68577;SDS011;61668;45.388;11.784;2023-02-03T08:28:10;136.60;;;57.00;;
68577;SDS011;61668;45.388;11.784;2023-02-03T08:30:35;147.80;;;56.70;;
68577;SDS011;61668;45.388;11.784;2023-02-03T08:33:01;133.80;;;55.10;;
68577;SDS011;61668;45.388;11.784;2023-02-03T08:35:27;127.00;;;55.20;;
68577;SDS011;61668;45.388;11.784;2023-02-03T08:37:53;135.20;;;55.40;;
68577;SDS011;61668;45.388;11.784;2023-02-03T08:40:18;137.80;;;54.90;;
68577;SDS011;61668;45.388;11.784;2023-02-03T08:42:44;130.80;;;54.40;;
68577;SDS011;61668;45.388;11.784;2023-02-03T08:45:10;131.70;;;53.30;;
68577;SDS011;61668;45.388;11.784;2023-02-03T08:47:36;129.70;;;54.00;;
68577;SDS011;61668;45.388;11.784;2023-02-03T08:50:06;123.30;;;52.90;;
68577;SDS011;61668;45.388;11.784;2023-02-03T08:52:33;129.20;;;55.60;;
68577;SDS011;61668;45.388;11.784;2023-02-03T08:54:58;130.10;;;52.30;;
68577;SDS011;61668;45.388;11.784;2023-02-03T08:57:24;119.40;;;53.70;;
68577;SDS011;61668;45.388;11.784;2023-02-03T08:59:49;117.30;;;50.80;;
68577;SDS011;61668;45.388;11.784;2023-02-03T09:02:18;120.70;;;52.30;;
68577;SDS011;61668;45.388;11.784;2023-02-03T09:04:44;122.70;;;53.40;;
68577;SDS011;61668;45.388;11.784;2023-02-03T09:07:12;117.80;;;51.30;;
68577;SDS011;61668;45.388;11.784;2023-02-03T09:09:38;113.10;;;50.80;;
68577;SDS011;61668;45.388;11.784;2023-02-03T09:12:07;115.70;;;49.20;;
68577;SDS011;61668;45.388;11.784;2023-02-03T09:14:35;111.90;;;49.80;;
68577;SDS011;61668;45.388;11.784;2023-02-03T09:17:02;112.80;;;50.00;;
68577;SDS011;61668;45.388;11.784;2023-02-03T09:19:30;117.00;;;47.70;;
68577;SDS011;61668;45.388;11.784;2023-02-03T09:21:56;114.80;;;49.90;;
68577;SDS011;61668;45.388;11.784;2023-02-03T09:24:22;114.30;;;48.40;;
68577;SDS011;61668;45.388;11.784;2023-02-03T09:26:49;113.70;;;49.60;;
68577;SDS011;61668;45.388;11.784;2023-02-03T09:29:15;104.80;;;46.00;;
68577;SDS011;61668;45.388;11.784;2023-02-03T09:31:40;100.70;;;43.90;;
68577;SDS011;61668;45.388;11.784;2023-02-03T09:34:07;100.10;;;45.20;;
68577;SDS011;61668;45.388;11.784;2023-02-03T09:36:33;105.60;;;45.70;;
68577;SDS011;61668;45.388;11.784;2023-02-03T09:38:59;106.80;;;45.60;;
68577;SDS011;61668;45.388;11.784;2023-02-03T09:45:19;112.90;;;47.00;;
68577;SDS011;61668;45.388;11.784;2023-02-03T09:47:51;103.10;;;46.80;;
68577;SDS011;61668;45.388;11.784;2023-02-03T09:50:31;97.50;;;45.10;;
68577;SDS011;61668;45.388;11.784;2023-02-03T09:53:05;109.20;;;44.40;;
68577;SDS011;61668;45.388;11.784;2023-02-03T09:55:40;103.80;;;46.20;;
68577;SDS011;61668;45.388;11.784;2023-02-03T09:58:16;105.50;;;43.80;;
68577;SDS011;61668;45.388;11.784;2023-02-03T10:01:05;103.60;;;44.60;;
68577;SDS011;61668;45.388;11.784;2023-02-03T10:04:33;97.70;;;42.50;;
68577;SDS011;61668;45.388;11.784;2023-02-03T10:07:01;103.50;;;44.70;;
68577;SDS011;61668;45.388;11.784;2023-02-03T10:16:11;90.70;;;41.00;;
68577;SDS011;61668;45.388;11.784;2023-02-03T10:18:48;94.60;;;41.50;;
68577;SDS011;61668;45.388;11.784;2023-02-03T10:21:28;94.10;;;40.90;;
68577;SDS011;61668;45.388;11.784;2023-02-03T10:23:56;103.20;;;44.60;;
68577;SDS011;61668;45.388;11.784;2023-02-03T10:26:26;98.70;;;44.10;;
68577;SDS011;61668;45.388;11.784;2023-02-03T10:28:54;100.40;;;44.70;;
68577;SDS011;61668;45.388;11.784;2023-02-03T10:31:25;104.70;;;45.90;;
68577;SDS011;61668;45.388;11.784;2023-02-03T10:34:10;100.10;;;45.80;;
68577;SDS011;61668;45.388;11.784;2023-02-03T10:39:31;96.20;;;43.60;;
68577;SDS011;61668;45.388;11.784;2023-02-03T10:42:02;95.00;;;42.30;;
68577;SDS011;61668;45.388;11.784;2023-02-03T10:44:43;88.00;;;41.80;;
68577;SDS011;61668;45.388;11.784;2023-02-03T10:47:23;98.90;;;43.90;;
68577;SDS011;61668;45.388;11.784;2023-02-03T10:49:54;99.40;;;43.70;;
68577;SDS011;61668;45.388;11.784;2023-02-03T10:52:30;96.90;;;44.10;;
68577;SDS011;61668;45.388;11.784;2023-02-03T10:54:59;93.50;;;43.70;;
68577;SDS011;61668;45.388;11.784;2023-02-03T10:57:37;95.40;;;41.70;;
68577;SDS011;61668;45.388;11.784;2023-02-03T11:00:27;101.80;;;44.50;;
68577;SDS011;61668;45.388;11.784;2023-02-03T11:03:22;95.10;;;43.00;;
68577;SDS011;61668;45.388;11.784;2023-02-03T11:06:14;93.70;;;42.00;;
68577;SDS011;61668;45.388;11.784;2023-02-03T11:08:47;88.80;;;41.60;;
68577;SDS011;61668;45.388;11.784;2023-02-03T11:11:20;92.60;;;42.60;;
68577;SDS011;61668;45.388;11.784;2023-02-03T11:16:27;92.60;;;41.90;;
68577;SDS011;61668;45.388;11.784;2023-02-03T11:24:21;99.60;;;44.30;;
68577;SDS011;61668;45.388;11.784;2023-02-03T11:32:20;98.20;;;43.60;;
68577;SDS011;61668;45.388;11.784;2023-02-03T11:34:56;97.80;;;43.80;;
68577;SDS011;61668;45.388;11.784;2023-02-03T11:37:28;93.50;;;41.10;;
68577;SDS011;61668;45.388;11.784;2023-02-03T11:42:33;94.90;;;43.40;;
68577;SDS011;61668;45.388;11.784;2023-02-03T11:45:24;96.80;;;44.50;;
68577;SDS011;61668;45.388;11.784;2023-02-03T11:56:08;153.50;;;68.00;;
68577;SDS011;61668;45.388;11.784;2023-02-03T11:59:02;103.10;;;46.20;;
68577;SDS011;61668;45.388;11.784;2023-02-03T12:07:25;96.90;;;43.50;;
68577;SDS011;61668;45.388;11.784;2023-02-03T12:10:02;103.20;;;45.80;;
68577;SDS011;61668;45.388;11.784;2023-02-03T12:24:36;102.40;;;44.50;;
68577;SDS011;61668;45.388;11.784;2023-02-03T12:30:27;101.40;;;43.70;;
68577;SDS011;61668;45.388;11.784;2023-02-03T12:33:02;101.60;;;45.20;;
68577;SDS011;61668;45.388;11.784;2023-02-03T12:35:46;104.50;;;44.40;;
68577;SDS011;61668;45.388;11.784;2023-02-03T12:38:40;101.20;;;44.60;;
68577;SDS011;61668;45.388;11.784;2023-02-03T12:41:25;103.90;;;47.10;;
68577;SDS011;61668;45.388;11.784;2023-02-03T12:44:04;95.20;;;43.40;;
68577;SDS011;61668;45.388;11.784;2023-02-03T12:46:41;104.70;;;46.60;;
68577;SDS011;61668;45.388;11.784;2023-02-03T12:49:46;95.80;;;43.30;;
68577;SDS011;61668;45.388;11.784;2023-02-03T12:52:25;103.10;;;45.40;;
68577;SDS011;61668;45.388;11.784;2023-02-03T12:58:02;106.10;;;47.50;;
68577;SDS011;61668;45.388;11.784;2023-02-03T13:00:58;99.00;;;45.10;;
68577;SDS011;61668;45.388;11.784;2023-02-03T13:09:58;117.40;;;50.80;;
68577;SDS011;61668;45.388;11.784;2023-02-03T13:12:36;106.40;;;48.70;;
68577;SDS011;61668;45.388;11.784;2023-02-03T13:15:31;103.40;;;45.80;;
68577;SDS011;61668;45.388;11.784;2023-02-03T13:18:03;107.10;;;45.10;;
68577;SDS011;61668;45.388;11.784;2023-02-03T13:20:52;100.20;;;45.40;;
68577;SDS011;61668;45.388;11.784;2023-02-03T13:23:19;103.30;;;47.40;;
68577;SDS011;61668;45.388;11.784;2023-02-03T13:31:53;99.90;;;45.40;;
68577;SDS011;61668;45.388;11.784;2023-02-03T13:44:13;110.40;;;48.80;;
68577;SDS011;61668;45.388;11.784;2023-02-03T13:46:41;114.00;;;50.20;;
68577;SDS011;61668;45.388;11.784;2023-02-03T13:49:07;99.60;;;45.60;;
68577;SDS011;61668;45.388;11.784;2023-02-03T13:51:44;103.00;;;49.20;;
68577;SDS011;61668;45.388;11.784;2023-02-03T13:54:36;103.40;;;46.70;;
68577;SDS011;61668;45.388;11.784;2023-02-03T13:57:05;110.30;;;48.80;;
68577;SDS011;61668;45.388;11.784;2023-02-03T13:59:46;102.10;;;45.60;;
68577;SDS011;61668;45.388;11.784;2023-02-03T14:12:54;109.40;;;47.30;;
68577;SDS011;61668;45.388;11.784;2023-02-03T14:18:29;102.20;;;47.30;;
68577;SDS011;61668;45.388;11.784;2023-02-03T14:21:21;102.80;;;49.90;;
68577;SDS011;61668;45.388;11.784;2023-02-03T14:23:55;107.50;;;49.30;;
68577;SDS011;61668;45.388;11.784;2023-02-03T14:26:33;107.90;;;49.20;;
68577;SDS011;61668;45.388;11.784;2023-02-03T14:29:07;107.10;;;52.90;;
68577;SDS011;61668;45.388;11.784;2023-02-03T14:34:38;109.70;;;54.40;;
68577;SDS011;61668;45.388;11.784;2023-02-03T14:37:25;111.60;;;50.30;;
68577;SDS011;61668;45.388;11.784;2023-02-03T15:02:26;115.20;;;46.80;;
68577;SDS011;61668;45.388;11.784;2023-02-03T15:10:28;109.80;;;46.70;;
68577;SDS011;61668;45.388;11.784;2023-02-03T15:12:57;103.50;;;47.10;;
68577;SDS011;61668;45.388;11.784;2023-02-03T15:15:35;111.00;;;48.10;;
68577;SDS011;61668;45.388;11.784;2023-02-03T15:18:21;110.30;;;53.30;;
68577;SDS011;61668;45.388;11.784;2023-02-03T15:20:54;114.40;;;50.50;;
68577;SDS011;61668;45.388;11.784;2023-02-03T15:23:30;114.30;;;49.10;;
68577;SDS011;61668;45.388;11.784;2023-02-03T15:26:12;110.60;;;50.30;;
68577;SDS011;61668;45.388;11.784;2023-02-03T15:28:39;112.20;;;49.70;;
68577;SDS011;61668;45.388;11.784;2023-02-03T15:31:20;118.00;;;56.30;;
68577;SDS011;61668;45.388;11.784;2023-02-03T15:34:17;107.20;;;49.20;;
68577;SDS011;61668;45.388;11.784;2023-02-03T15:36:51;111.30;;;49.20;;
68577;SDS011;61668;45.388;11.784;2023-02-03T15:41:59;132.80;;;57.50;;
68577;SDS011;61668;45.388;11.784;2023-02-03T15:44:38;135.20;;;58.20;;
68577;SDS011;61668;45.388;11.784;2023-02-03T15:47:19;121.40;;;55.30;;
68577;SDS011;61668;45.388;11.784;2023-02-03T15:49:57;117.10;;;52.80;;
68577;SDS011;61668;45.388;11.784;2023-02-03T15:52:28;116.00;;;54.10;;
68577;SDS011;61668;45.388;11.784;2023-02-03T15:55:05;129.00;;;54.40;;
68577;SDS011;61668;45.388;11.784;2023-02-03T15:57:38;127.40;;;55.40;;
68577;SDS011;61668;45.388;11.784;2023-02-03T16:00:32;137.00;;;61.00;;
68577;SDS011;61668;45.388;11.784;2023-02-03T16:03:01;132.00;;;55.00;;
68577;SDS011;61668;45.388;11.784;2023-02-03T16:05:33;132.30;;;58.30;;
68577;SDS011;61668;45.388;11.784;2023-02-03T16:08:33;129.60;;;56.50;;
68577;SDS011;61668;45.388;11.784;2023-02-03T16:11:00;121.20;;;51.40;;
68577;SDS011;61668;45.388;11.784;2023-02-03T16:13:27;145.50;;;59.20;;
68577;SDS011;61668;45.388;11.784;2023-02-03T16:18:31;124.40;;;56.60;;
68577;SDS011;61668;45.388;11.784;2023-02-03T16:21:01;131.80;;;57.10;;
68577;SDS011;61668;45.388;11.784;2023-02-03T16:23:28;131.70;;;54.80;;
68577;SDS011;61668;45.388;11.784;2023-02-03T16:29:09;130.60;;;57.70;;
68577;SDS011;61668;45.388;11.784;2023-02-03T16:31:55;124.20;;;53.00;;
68577;SDS011;61668;45.388;11.784;2023-02-03T16:34:40;125.40;;;54.70;;
68577;SDS011;61668;45.388;11.784;2023-02-03T16:37:30;130.50;;;55.20;;
68577;SDS011;61668;45.388;11.784;2023-02-03T16:40:22;131.70;;;55.00;;
68577;SDS011;61668;45.388;11.784;2023-02-03T16:43:12;139.10;;;58.90;;
68577;SDS011;61668;45.388;11.784;2023-02-03T16:45:58;141.90;;;60.90;;
68577;SDS011;61668;45.388;11.784;2023-02-03T16:48:43;125.60;;;53.60;;
68577;SDS011;61668;45.388;11.784;2023-02-03T16:51:39;135.50;;;59.20;;
68577;SDS011;61668;45.388;11.784;2023-02-03T16:54:09;130.80;;;54.00;;
68577;SDS011;61668;45.388;11.784;2023-02-03T16:56:37;132.60;;;56.20;;
68577;SDS011;61668;45.388;11.784;2023-02-03T16:59:03;146.70;;;61.10;;
68577;SDS011;61668;45.388;11.784;2023-02-03T17:01:29;146.90;;;58.60;;
68577;SDS011;61668;45.388;11.784;2023-02-03T17:03:54;130.30;;;56.10;;
68577;SDS011;61668;45.388;11.784;2023-02-03T17:06:20;135.40;;;57.50;;